sensor_id;sensor_type;location;lat;lon;timestamp;pressure;altitude;pressure_sealevel;temperature;humidity
70902;BME280;58548;47.210;8.618;2023-10-09T00:02:13;94957.94;;;21.36;37.86
70902;BME280;58548;47.210;8.618;2023-10-09T00:04:41;94964.38;;;21.40;37.91
70902;BME280;58548;47.210;8.618;2023-10-09T00:07:11;94962.28;;;21.42;37.33
70902;BME280;58548;47.210;8.618;2023-10-09T00:09:37;94965.31;;;21.46;37.36
70902;BME280;58548;47.210;8.618;2023-10-09T00:12:24;94944.66;;;21.36;37.34
70902;BME280;58548;47.210;8.618;2023-10-09T00:14:55;94929.53;;;21.24;37.27
70902;BME280;58548;47.210;8.618;2023-10-09T00:17:21;94945.09;;;21.45;37.03
70902;BME280;58548;47.210;8.618;2023-10-09T00:19:51;94957.19;;;21.52;37.36
70902;BME280;58548;47.210;8.618;2023-10-09T00:22:18;94950.00;;;21.53;37.47
70902;BME280;58548;47.210;8.618;2023-10-09T00:24:50;94955.78;;;21.62;37.06
70902;BME280;58548;47.210;8.618;2023-10-09T00:27:17;94925.78;;;21.49;37.31
70902;BME280;58548;47.210;8.618;2023-10-09T00:29:47;94901.91;;;21.37;36.92
70902;BME280;58548;47.210;8.618;2023-10-09T00:32:15;94873.19;;;21.22;36.99
70902;BME280;58548;47.210;8.618;2023-10-09T00:34:51;94940.59;;;21.74;36.89
70902;BME280;58548;47.210;8.618;2023-10-09T00:37:21;94952.13;;;21.80;36.80
70902;BME280;58548;47.210;8.618;2023-10-09T00:39:59;94849.75;;;21.19;37.02
70902;BME280;58548;47.210;8.618;2023-10-09T00:42:40;94870.28;;;21.36;37.03
70902;BME280;58548;47.210;8.618;2023-10-09T00:45:06;94854.22;;;21.31;37.07
70902;BME280;58548;47.210;8.618;2023-10-09T00:47:42;94870.28;;;21.36;36.64
70902;BME280;58548;47.210;8.618;2023-10-09T00:50:10;94939.25;;;21.89;36.89
70902;BME280;58548;47.210;8.618;2023-10-09T00:52:52;94950.56;;;21.96;36.91
70902;BME280;58548;47.210;8.618;2023-10-09T00:55:27;94943.13;;;21.98;36.60
70902;BME280;58548;47.210;8.618;2023-10-09T00:58:05;94924.91;;;21.90;36.56
70902;BME280;58548;47.210;8.618;2023-10-09T01:00:41;94937.81;;;21.98;36.57
70902;BME280;58548;47.210;8.618;2023-10-09T01:03:17;94942.16;;;22.04;36.66
70902;BME280;58548;47.210;8.618;2023-10-09T01:05:44;94949.34;;;22.04;36.80
70902;BME280;58548;47.210;8.618;2023-10-09T01:08:43;94939.28;;;22.06;36.73
70902;BME280;58548;47.210;8.618;2023-10-09T01:11:18;94851.38;;;21.49;36.56
70902;BME280;58548;47.210;8.618;2023-10-09T01:13:45;94924.38;;;22.05;36.32
70902;BME280;58548;47.210;8.618;2023-10-09T01:16:15;94911.06;;;22.05;36.34
70902;BME280;58548;47.210;8.618;2023-10-09T01:18:51;94836.09;;;21.57;36.45
70902;BME280;58548;47.210;8.618;2023-10-09T01:21:19;94906.22;;;22.02;36.12
70902;BME280;58548;47.210;8.618;2023-10-09T01:23:50;94933.41;;;22.21;36.23
70902;BME280;58548;47.210;8.618;2023-10-09T01:26:25;94837.44;;;21.59;36.23
70902;BME280;58548;47.210;8.618;2023-10-09T01:28:54;94925.09;;;22.17;36.57
70902;BME280;58548;47.210;8.618;2023-10-09T01:31:26;94927.03;;;22.22;36.55
70902;BME280;58548;47.210;8.618;2023-10-09T01:33:55;94933.97;;;22.23;36.30
70902;BME280;58548;47.210;8.618;2023-10-09T01:36:26;94859.00;;;21.75;36.52
70902;BME280;58548;47.210;8.618;2023-10-09T01:39:01;94834.78;;;21.59;35.93
70902;BME280;58548;47.210;8.618;2023-10-09T01:41:50;94864.16;;;21.81;36.26
70902;BME280;58548;47.210;8.618;2023-10-09T01:44:28;94830.78;;;21.57;36.05
70902;BME280;58548;47.210;8.618;2023-10-09T01:49:34;94826.16;;;21.52;36.06
70902;BME280;58548;47.210;8.618;2023-10-09T01:52:03;94840.56;;;21.56;36.42
70902;BME280;58548;47.210;8.618;2023-10-09T01:54:39;94845.09;;;21.56;36.34
70902;BME280;58548;47.210;8.618;2023-10-09T01:57:18;94917.59;;;21.97;36.34
70902;BME280;58548;47.210;8.618;2023-10-09T01:59:52;94918.63;;;21.96;36.46
70902;BME280;58548;47.210;8.618;2023-10-09T02:02:21;94913.72;;;21.88;36.57
70902;BME280;58548;47.210;8.618;2023-10-09T02:04:53;94923.66;;;21.92;36.45
70902;BME280;58548;47.210;8.618;2023-10-09T02:07:33;94934.75;;;21.89;36.67
70902;BME280;58548;47.210;8.618;2023-10-09T02:10:10;94827.41;;;21.32;36.66
70902;BME280;58548;47.210;8.618;2023-10-09T02:12:52;94867.63;;;21.53;36.56
70902;BME280;58548;47.210;8.618;2023-10-09T02:15:28;94833.34;;;21.22;36.59
70902;BME280;58548;47.210;8.618;2023-10-09T02:18:29;94821.03;;;21.16;36.87
70902;BME280;58548;47.210;8.618;2023-10-09T02:23:31;94920.69;;;21.77;36.56
70902;BME280;58548;47.210;8.618;2023-10-09T02:26:08;94827.63;;;21.14;36.31
70902;BME280;58548;47.210;8.618;2023-10-09T02:28:38;94909.56;;;21.63;37.07
70902;BME280;58548;47.210;8.618;2023-10-09T02:31:11;94824.06;;;21.08;36.62
70902;BME280;58548;47.210;8.618;2023-10-09T02:33:37;94863.13;;;21.24;37.11
70902;BME280;58548;47.210;8.618;2023-10-09T02:36:10;94829.06;;;21.04;36.96
70902;BME280;58548;47.210;8.618;2023-10-09T02:38:38;94886.78;;;21.38;36.94
70902;BME280;58548;47.210;8.618;2023-10-09T02:41:09;94844.16;;;21.04;36.98
70902;BME280;58548;47.210;8.618;2023-10-09T02:43:38;94915.38;;;21.48;37.01
70902;BME280;58548;47.210;8.618;2023-10-09T02:46:11;94819.66;;;20.85;37.08
70902;BME280;58548;47.210;8.618;2023-10-09T02:48:50;94829.13;;;20.81;36.93
70902;BME280;58548;47.210;8.618;2023-10-09T02:51:20;94899.97;;;21.33;37.07
70902;BME280;58548;47.210;8.618;2023-10-09T02:53:55;94898.81;;;21.29;37.28
70902;BME280;58548;47.210;8.618;2023-10-09T02:56:26;94905.16;;;21.28;37.48
70902;BME280;58548;47.210;8.618;2023-10-09T02:59:13;94905.06;;;21.22;37.23
70902;BME280;58548;47.210;8.618;2023-10-09T03:01:42;94791.31;;;20.49;36.67
70902;BME280;58548;47.210;8.618;2023-10-09T03:04:11;94902.66;;;21.21;36.51
70902;BME280;58548;47.210;8.618;2023-10-09T03:06:37;94807.09;;;20.56;36.74
70902;BME280;58548;47.210;8.618;2023-10-09T03:09:10;94901.19;;;21.13;36.90
70902;BME280;58548;47.210;8.618;2023-10-09T03:11:57;94888.72;;;21.02;37.00
70902;BME280;58548;47.210;8.618;2023-10-09T03:14:30;94886.22;;;20.95;36.94
70902;BME280;58548;47.210;8.618;2023-10-09T03:17:00;94892.09;;;20.97;36.99
70902;BME280;58548;47.210;8.618;2023-10-09T03:19:31;94862.69;;;20.75;37.00
70902;BME280;58548;47.210;8.618;2023-10-09T03:22:07;94849.09;;;20.59;36.92
70902;BME280;58548;47.210;8.618;2023-10-09T03:24:40;94733.97;;;19.84;37.46
70902;BME280;58548;47.210;8.618;2023-10-09T03:27:12;94904.25;;;20.81;37.02
70902;BME280;58548;47.210;8.618;2023-10-09T03:29:41;94811.44;;;20.22;37.62
70902;BME280;58548;47.210;8.618;2023-10-09T03:32:10;94902.72;;;20.73;37.55
70902;BME280;58548;47.210;8.618;2023-10-09T03:34:37;94826.66;;;20.26;37.29
70902;BME280;58548;47.210;8.618;2023-10-09T03:37:04;94898.84;;;20.64;37.24
70902;BME280;58548;47.210;8.618;2023-10-09T03:39:34;94914.50;;;20.66;37.70
70902;BME280;58548;47.210;8.618;2023-10-09T03:42:07;94872.06;;;20.42;37.22
70902;BME280;58548;47.210;8.618;2023-10-09T03:44:43;94902.75;;;20.61;37.24
70902;BME280;58548;47.210;8.618;2023-10-09T03:47:13;94914.28;;;20.55;37.52
70902;BME280;58548;47.210;8.618;2023-10-09T03:49:44;94913.94;;;20.52;37.61
70902;BME280;58548;47.210;8.618;2023-10-09T03:52:10;94795.84;;;19.78;37.20
70902;BME280;58548;47.210;8.618;2023-10-09T03:54:43;94906.91;;;20.45;37.92
70902;BME280;58548;47.210;8.618;2023-10-09T03:57:12;94896.88;;;20.36;37.48
70902;BME280;58548;47.210;8.618;2023-10-09T03:59:48;94904.94;;;20.41;37.31
70902;BME280;58548;47.210;8.618;2023-10-09T04:02:15;94904.94;;;20.41;37.25
70902;BME280;58548;47.210;8.618;2023-10-09T04:04:42;94849.50;;;20.03;37.39
70902;BME280;58548;47.210;8.618;2023-10-09T04:07:14;94898.47;;;20.37;37.65
70902;BME280;58548;47.210;8.618;2023-10-09T04:09:43;94811.75;;;19.78;37.17
70902;BME280;58548;47.210;8.618;2023-10-09T04:12:19;94898.59;;;20.30;37.05
70902;BME280;58548;47.210;8.618;2023-10-09T04:14:47;94854.09;;;19.96;37.28
70902;BME280;58548;47.210;8.618;2023-10-09T04:17:35;94860.88;;;20.04;38.06
70902;BME280;58548;47.210;8.618;2023-10-09T04:20:09;94895.50;;;20.21;37.76
70902;BME280;58548;47.210;8.618;2023-10-09T04:22:44;94803.19;;;19.52;37.99
70902;BME280;58548;47.210;8.618;2023-10-09T04:25:17;94828.56;;;19.71;37.96
70902;BME280;58548;47.210;8.618;2023-10-09T04:28:00;94873.00;;;20.00;37.96
70902;BME280;58548;47.210;8.618;2023-10-09T04:30:39;94799.16;;;19.49;38.31
70902;BME280;58548;47.210;8.618;2023-10-09T04:33:21;94808.72;;;19.50;38.12
70902;BME280;58548;47.210;8.618;2023-10-09T04:36:09;94779.88;;;19.30;38.72
70902;BME280;58548;47.210;8.618;2023-10-09T04:38:58;94889.25;;;20.03;38.86
70902;BME280;58548;47.210;8.618;2023-10-09T04:41:30;94882.31;;;19.91;38.95
70902;BME280;58548;47.210;8.618;2023-10-09T04:44:09;94812.06;;;19.46;37.96
70902;BME280;58548;47.210;8.618;2023-10-09T04:47:01;94811.34;;;19.38;38.30
70902;BME280;58548;47.210;8.618;2023-10-09T04:49:38;94878.59;;;19.80;38.69
70902;BME280;58548;47.210;8.618;2023-10-09T04:52:27;94843.75;;;19.52;38.15
70902;BME280;58548;47.210;8.618;2023-10-09T04:54:57;94899.34;;;19.83;38.19
70902;BME280;58548;47.210;8.618;2023-10-09T04:57:36;94800.25;;;19.18;38.34
70902;BME280;58548;47.210;8.618;2023-10-09T05:00:09;94901.97;;;19.83;38.80
70902;BME280;58548;47.210;8.618;2023-10-09T05:02:56;94795.53;;;19.20;38.08
70902;BME280;58548;47.210;8.618;2023-10-09T05:05:24;94794.25;;;19.22;38.12
70902;BME280;58548;47.210;8.618;2023-10-09T05:08:18;94875.47;;;19.71;38.05
70902;BME280;58548;47.210;8.618;2023-10-09T05:10:58;94897.72;;;19.82;38.47
70902;BME280;58548;47.210;8.618;2023-10-09T05:13:24;94896.09;;;19.81;38.49
70902;BME280;58548;47.210;8.618;2023-10-09T05:16:14;94802.44;;;19.21;38.58
70902;BME280;58548;47.210;8.618;2023-10-09T05:19:00;94905.53;;;19.77;38.24
70902;BME280;58548;47.210;8.618;2023-10-09T05:21:35;94900.47;;;19.75;38.82
70902;BME280;58548;47.210;8.618;2023-10-09T05:24:02;94885.00;;;19.60;38.26
70902;BME280;58548;47.210;8.618;2023-10-09T05:26:50;94903.56;;;19.72;38.33
70902;BME280;58548;47.210;8.618;2023-10-09T05:29:26;94790.50;;;18.99;38.32
70902;BME280;58548;47.210;8.618;2023-10-09T05:31:59;94811.13;;;19.09;38.57
70902;BME280;58548;47.210;8.618;2023-10-09T05:34:45;94829.72;;;19.21;38.73
70902;BME280;58548;47.210;8.618;2023-10-09T05:37:31;94905.75;;;19.63;38.68
70902;BME280;58548;47.210;8.618;2023-10-09T05:40:09;94802.75;;;18.94;38.53
70902;BME280;58548;47.210;8.618;2023-10-09T05:42:45;94809.25;;;18.98;38.79
70902;BME280;58548;47.210;8.618;2023-10-09T05:45:26;94869.03;;;19.36;38.66
70902;BME280;58548;47.210;8.618;2023-10-09T05:48:13;94911.50;;;19.60;38.51
70902;BME280;58548;47.210;8.618;2023-10-09T05:50:39;94801.53;;;18.96;38.54
70902;BME280;58548;47.210;8.618;2023-10-09T05:53:25;94919.38;;;19.79;38.56
70902;BME280;58548;47.210;8.618;2023-10-09T05:56:25;94927.84;;;19.87;37.96
70902;BME280;58548;47.210;8.618;2023-10-09T05:59:00;94831.50;;;19.39;37.97
70902;BME280;58548;47.210;8.618;2023-10-09T06:01:47;94831.25;;;19.41;38.10
70902;BME280;58548;47.210;8.618;2023-10-09T06:04:21;94747.94;;;19.01;38.58
70902;BME280;58548;47.210;8.618;2023-10-09T06:07:01;94932.50;;;20.16;38.74
70902;BME280;58548;47.210;8.618;2023-10-09T06:09:37;94906.78;;;20.04;38.28
70902;BME280;58548;47.210;8.618;2023-10-09T06:12:15;94927.78;;;20.18;37.87
70902;BME280;58548;47.210;8.618;2023-10-09T06:15:03;94933.78;;;20.25;38.09
70902;BME280;58548;47.210;8.618;2023-10-09T06:17:47;94820.25;;;19.56;38.40
70902;BME280;58548;47.210;8.618;2023-10-09T06:20:16;94934.81;;;20.36;37.92
70902;BME280;58548;47.210;8.618;2023-10-09T06:23:03;94932.75;;;20.50;37.62
70902;BME280;58548;47.210;8.618;2023-10-09T06:25:44;94919.03;;;20.53;37.56
70902;BME280;58548;47.210;8.618;2023-10-09T06:28:33;94936.34;;;20.79;37.59
70902;BME280;58548;47.210;8.618;2023-10-09T06:31:01;94860.09;;;20.39;37.37
70902;BME280;58548;47.210;8.618;2023-10-09T06:33:47;94828.59;;;20.43;37.42
70902;BME280;58548;47.210;8.618;2023-10-09T06:36:32;94915.50;;;21.12;37.22
70902;BME280;58548;47.210;8.618;2023-10-09T06:38:58;94768.50;;;20.37;37.68
70902;BME280;58548;47.210;8.618;2023-10-09T06:41:45;94935.50;;;21.73;37.19
70902;BME280;58548;47.210;8.618;2023-10-09T06:44:28;94905.09;;;21.97;36.62
70902;BME280;58548;47.210;8.618;2023-10-09T06:47:12;94927.53;;;22.53;36.26
70902;BME280;58548;47.210;8.618;2023-10-09T06:49:38;94928.06;;;22.94;35.79
70902;BME280;58548;47.210;8.618;2023-10-09T06:52:24;94935.59;;;23.42;35.60
70902;BME280;58548;47.210;8.618;2023-10-09T06:55:10;94937.84;;;23.77;35.34
70902;BME280;58548;47.210;8.618;2023-10-09T06:57:46;94928.78;;;24.06;35.17
70902;BME280;58548;47.210;8.618;2023-10-09T07:00:15;94914.00;;;24.26;34.82
70902;BME280;58548;47.210;8.618;2023-10-09T07:03:01;94919.84;;;24.60;32.82
70902;BME280;58548;47.210;8.618;2023-10-09T07:05:39;94874.69;;;24.59;32.93
70902;BME280;58548;47.210;8.618;2023-10-09T07:08:26;94938.94;;;25.27;31.61
70902;BME280;58548;47.210;8.618;2023-10-09T07:11:00;94945.97;;;25.49;31.77
70902;BME280;58548;47.210;8.618;2023-10-09T07:13:49;94866.75;;;25.33;30.76
70902;BME280;58548;47.210;8.618;2023-10-09T07:16:22;94932.97;;;26.10;30.92
70902;BME280;58548;47.210;8.618;2023-10-09T07:19:06;94927.91;;;26.44;30.98
70902;BME280;58548;47.210;8.618;2023-10-09T07:21:36;94872.22;;;26.46;30.84
70902;BME280;58548;47.210;8.618;2023-10-09T07:24:05;94955.00;;;27.45;29.51
70902;BME280;58548;47.210;8.618;2023-10-09T07:26:42;94956.66;;;27.96;29.10
70902;BME280;58548;47.210;8.618;2023-10-09T07:29:21;94963.44;;;28.57;28.63
70902;BME280;58548;47.210;8.618;2023-10-09T07:31:49;94959.22;;;29.10;28.41
70902;BME280;58548;47.210;8.618;2023-10-09T07:34:24;94957.41;;;29.73;27.09
70902;BME280;58548;47.210;8.618;2023-10-09T07:37:23;94941.13;;;30.36;26.23
70902;BME280;58548;47.210;8.618;2023-10-09T07:39:50;94899.72;;;30.65;25.31
70902;BME280;58548;47.210;8.618;2023-10-09T07:42:24;94961.97;;;31.66;24.69
70902;BME280;58548;47.210;8.618;2023-10-09T07:45:10;94973.25;;;32.33;24.79
70902;BME280;58548;47.210;8.618;2023-10-09T07:47:49;94970.94;;;32.95;23.23
70902;BME280;58548;47.210;8.618;2023-10-09T07:50:40;94974.06;;;33.60;23.13
70902;BME280;58548;47.210;8.618;2023-10-09T07:53:09;94964.41;;;34.11;22.51
70902;BME280;58548;47.210;8.618;2023-10-09T07:55:45;94973.47;;;34.86;21.49
70902;BME280;58548;47.210;8.618;2023-10-09T07:58:25;94969.09;;;35.50;20.02
70902;BME280;58548;47.210;8.618;2023-10-09T08:00:57;94908.44;;;35.67;20.15
70902;BME280;58548;47.210;8.618;2023-10-09T08:03:33;94969.28;;;36.60;19.21
70902;BME280;58548;47.210;8.618;2023-10-09T08:06:02;94900.16;;;36.73;18.03
70902;BME280;58548;47.210;8.618;2023-10-09T08:08:50;94938.56;;;37.55;17.40
70902;BME280;58548;47.210;8.618;2023-10-09T08:11:37;94967.31;;;38.18;16.79
70902;BME280;58548;47.210;8.618;2023-10-09T08:14:10;94981.22;;;38.70;16.40
70902;BME280;58548;47.210;8.618;2023-10-09T08:16:54;94860.41;;;38.41;15.68
70902;BME280;58548;47.210;8.618;2023-10-09T08:19:39;94952.69;;;39.44;15.56
70902;BME280;58548;47.210;8.618;2023-10-09T08:22:27;94977.50;;;40.06;14.85
70902;BME280;58548;47.210;8.618;2023-10-09T08:24:57;94984.72;;;40.54;14.66
70902;BME280;58548;47.210;8.618;2023-10-09T08:27:31;94934.75;;;40.57;14.20
70902;BME280;58548;47.210;8.618;2023-10-09T08:30:06;94934.16;;;41.10;13.60
70902;BME280;58548;47.210;8.618;2023-10-09T08:32:40;94996.47;;;41.90;13.47
70902;BME280;58548;47.210;8.618;2023-10-09T08:35:09;95001.38;;;42.35;12.84
70902;BME280;58548;47.210;8.618;2023-10-09T08:38:04;95008.97;;;42.79;12.83
70902;BME280;58548;47.210;8.618;2023-10-09T08:40:40;95013.38;;;43.26;11.91
70902;BME280;58548;47.210;8.618;2023-10-09T08:43:16;95009.38;;;43.64;11.16
70902;BME280;58548;47.210;8.618;2023-10-09T08:45:47;95017.47;;;43.98;11.40
70902;BME280;58548;47.210;8.618;2023-10-09T08:48:14;94999.53;;;44.19;10.89
70902;BME280;58548;47.210;8.618;2023-10-09T08:50:48;94972.84;;;44.34;10.73
70902;BME280;58548;47.210;8.618;2023-10-09T08:53:21;95005.66;;;44.79;10.44
70902;BME280;58548;47.210;8.618;2023-10-09T08:55:47;95010.84;;;45.02;10.27
70902;BME280;58548;47.210;8.618;2023-10-09T08:58:19;94962.81;;;44.89;10.17
70902;BME280;58548;47.210;8.618;2023-10-09T09:00:45;94958.47;;;45.02;10.17
70902;BME280;58548;47.210;8.618;2023-10-09T09:03:20;95001.06;;;45.48;9.66
70902;BME280;58548;47.210;8.618;2023-10-09T09:06:01;94956.97;;;45.27;9.74
70902;BME280;58548;47.210;8.618;2023-10-09T09:08:29;94972.31;;;45.31;9.57
70902;BME280;58548;47.210;8.618;2023-10-09T09:11:08;95031.00;;;45.61;9.62
70902;BME280;58548;47.210;8.618;2023-10-09T09:13:59;94941.53;;;44.82;9.60
70902;BME280;58548;47.210;8.618;2023-10-09T09:16:45;95018.72;;;44.97;9.85
70902;BME280;58548;47.210;8.618;2023-10-09T09:19:14;95032.78;;;44.63;10.05
70902;BME280;58548;47.210;8.618;2023-10-09T09:21:49;95030.19;;;44.18;10.51
70902;BME280;58548;47.210;8.618;2023-10-09T09:24:20;94953.75;;;43.30;10.84
70902;BME280;58548;47.210;8.618;2023-10-09T09:26:52;95011.50;;;43.33;11.37
70902;BME280;58548;47.210;8.618;2023-10-09T09:34:48;94960.97;;;42.32;11.86
70902;BME280;58548;47.210;8.618;2023-10-09T09:37:22;94949.25;;;42.35;11.85
70902;BME280;58548;47.210;8.618;2023-10-09T09:40:04;95014.03;;;43.12;12.09
70902;BME280;58548;47.210;8.618;2023-10-09T09:43:00;94961.06;;;43.18;11.46
70902;BME280;58548;47.210;8.618;2023-10-09T09:45:40;94954.03;;;43.69;11.03
70902;BME280;58548;47.210;8.618;2023-10-09T09:48:15;94948.38;;;44.04;10.31
70902;BME280;58548;47.210;8.618;2023-10-09T09:50:42;94942.97;;;44.40;9.95
70902;BME280;58548;47.210;8.618;2023-10-09T09:53:15;94980.94;;;45.05;10.17
70902;BME280;58548;47.210;8.618;2023-10-09T09:55:54;95017.19;;;45.61;9.36
70902;BME280;58548;47.210;8.618;2023-10-09T09:58:27;95018.34;;;46.00;8.94
70902;BME280;58548;47.210;8.618;2023-10-09T10:01:10;95012.84;;;46.03;8.71
70902;BME280;58548;47.210;8.618;2023-10-09T10:04:14;94949.84;;;45.40;8.65
70902;BME280;58548;47.210;8.618;2023-10-09T10:06:47;95011.69;;;45.46;8.54
70902;BME280;58548;47.210;8.618;2023-10-09T10:09:36;95017.91;;;44.89;9.34
70902;BME280;58548;47.210;8.618;2023-10-09T10:12:10;94942.41;;;44.02;9.73
70902;BME280;58548;47.210;8.618;2023-10-09T10:14:57;95009.31;;;44.06;9.78
70902;BME280;58548;47.210;8.618;2023-10-09T10:20:30;95007.16;;;43.32;10.29
70902;BME280;58548;47.210;8.618;2023-10-09T10:23:17;94925.47;;;42.46;10.53
70902;BME280;58548;47.210;8.618;2023-10-09T10:25:46;95004.91;;;42.70;10.75
70902;BME280;58548;47.210;8.618;2023-10-09T10:28:25;94941.41;;;42.03;11.23
70902;BME280;58548;47.210;8.618;2023-10-09T10:31:04;94998.53;;;42.28;11.36
70902;BME280;58548;47.210;8.618;2023-10-09T10:34:10;94998.31;;;42.10;11.97
70902;BME280;58548;47.210;8.618;2023-10-09T10:36:39;94997.81;;;42.00;12.00
70902;BME280;58548;47.210;8.618;2023-10-09T10:39:13;94916.75;;;41.49;12.00
70902;BME280;58548;47.210;8.618;2023-10-09T10:42:02;94912.69;;;41.39;11.61
70902;BME280;58548;47.210;8.618;2023-10-09T10:44:32;94913.47;;;41.40;11.88
70902;BME280;58548;47.210;8.618;2023-10-09T10:47:11;94986.84;;;41.77;11.75
70902;BME280;58548;47.210;8.618;2023-10-09T10:50:00;94911.75;;;41.32;11.73
70902;BME280;58548;47.210;8.618;2023-10-09T10:53:16;94976.63;;;41.74;11.80
70902;BME280;58548;47.210;8.618;2023-10-09T10:55:59;94967.09;;;41.64;12.13
70902;BME280;58548;47.210;8.618;2023-10-09T10:58:37;94971.78;;;41.64;11.93
70902;BME280;58548;47.210;8.618;2023-10-09T11:01:05;94960.78;;;41.60;12.55
70902;BME280;58548;47.210;8.618;2023-10-09T11:03:40;94963.88;;;41.58;12.59
70902;BME280;58548;47.210;8.618;2023-10-09T11:06:26;94880.53;;;41.09;12.46
70902;BME280;58548;47.210;8.618;2023-10-09T11:09:08;94925.28;;;41.44;13.01
70902;BME280;58548;47.210;8.618;2023-10-09T11:11:52;94954.66;;;41.70;13.01
70902;BME280;58548;47.210;8.618;2023-10-09T11:14:46;94881.31;;;41.37;13.16
70902;BME280;58548;47.210;8.618;2023-10-09T11:17:35;94950.25;;;41.93;13.02
70902;BME280;58548;47.210;8.618;2023-10-09T11:20:08;94944.56;;;42.05;12.93
70902;BME280;58548;47.210;8.618;2023-10-09T11:22:54;94954.53;;;42.20;13.17
70902;BME280;58548;47.210;8.618;2023-10-09T11:25:33;94946.94;;;42.37;12.79
70902;BME280;58548;47.210;8.618;2023-10-09T11:28:02;94894.19;;;42.20;12.06
70902;BME280;58548;47.210;8.618;2023-10-09T11:30:48;94959.97;;;42.82;12.13
70902;BME280;58548;47.210;8.618;2023-10-09T11:33:21;94891.03;;;42.53;12.17
70902;BME280;58548;47.210;8.618;2023-10-09T11:35:58;94937.44;;;43.06;11.78
70902;BME280;58548;47.210;8.618;2023-10-09T11:38:35;94942.78;;;43.37;11.40
70902;BME280;58548;47.210;8.618;2023-10-09T11:41:17;94942.50;;;43.53;11.45
70902;BME280;58548;47.210;8.618;2023-10-09T11:43:53;94871.56;;;43.17;11.26
70902;BME280;58548;47.210;8.618;2023-10-09T11:46:26;94939.00;;;43.60;10.99
70902;BME280;58548;47.210;8.618;2023-10-09T11:49:14;94929.88;;;43.45;11.24
70902;BME280;58548;47.210;8.618;2023-10-09T11:52:07;94861.09;;;42.82;11.46
70902;BME280;58548;47.210;8.618;2023-10-09T11:54:39;94856.59;;;42.62;11.06
70902;BME280;58548;47.210;8.618;2023-10-09T11:57:05;94902.75;;;42.87;11.19
70902;BME280;58548;47.210;8.618;2023-10-09T11:59:38;94920.06;;;42.95;11.35
70902;BME280;58548;47.210;8.618;2023-10-09T12:02:05;94920.91;;;43.03;10.69
70902;BME280;58548;47.210;8.618;2023-10-09T12:04:37;94860.69;;;42.79;10.00
70902;BME280;58548;47.210;8.618;2023-10-09T12:07:08;94898.25;;;43.17;10.50
70902;BME280;58548;47.210;8.618;2023-10-09T12:09:39;94902.25;;;43.23;10.11
70902;BME280;58548;47.210;8.618;2023-10-09T12:12:08;94911.25;;;43.20;10.51
70902;BME280;58548;47.210;8.618;2023-10-09T12:14:37;94856.91;;;42.54;10.70
70902;BME280;58548;47.210;8.618;2023-10-09T12:17:07;94919.78;;;42.66;10.44
70902;BME280;58548;47.210;8.618;2023-10-09T12:19:36;94856.28;;;41.96;11.22
70902;BME280;58548;47.210;8.618;2023-10-09T12:22:03;94843.22;;;41.55;12.76
70902;BME280;58548;47.210;8.618;2023-10-09T12:24:30;94912.78;;;41.73;12.70
70902;BME280;58548;47.210;8.618;2023-10-09T12:26:59;94828.97;;;40.92;12.73
70902;BME280;58548;47.210;8.618;2023-10-09T12:29:28;94838.59;;;40.82;13.00
70902;BME280;58548;47.210;8.618;2023-10-09T12:31:59;94835.75;;;40.75;12.81
70902;BME280;58548;47.210;8.618;2023-10-09T12:34:25;94883.31;;;41.13;12.60
70902;BME280;58548;47.210;8.618;2023-10-09T12:36:59;94899.59;;;41.52;12.56
70902;BME280;58548;47.210;8.618;2023-10-09T12:39:32;94891.41;;;41.86;12.83
70902;BME280;58548;47.210;8.618;2023-10-09T12:42:06;94822.53;;;41.92;12.43
70902;BME280;58548;47.210;8.618;2023-10-09T12:44:35;94818.66;;;42.34;11.92
70902;BME280;58548;47.210;8.618;2023-10-09T12:47:08;94878.16;;;43.05;12.30
70902;BME280;58548;47.210;8.618;2023-10-09T12:49:39;94880.31;;;43.27;11.36
70902;BME280;58548;47.210;8.618;2023-10-09T12:52:08;94821.06;;;42.81;12.02
70902;BME280;58548;47.210;8.618;2023-10-09T12:54:45;94882.13;;;43.12;11.64
70902;BME280;58548;47.210;8.618;2023-10-09T12:57:16;94879.28;;;42.97;11.76
70902;BME280;58548;47.210;8.618;2023-10-09T12:59:42;94890.13;;;42.83;11.95
70902;BME280;58548;47.210;8.618;2023-10-09T13:02:14;94892.25;;;42.59;12.20
70902;BME280;58548;47.210;8.618;2023-10-09T13:05:04;94829.16;;;41.90;12.62
70902;BME280;58548;47.210;8.618;2023-10-09T13:07:32;94864.75;;;41.87;14.03
70902;BME280;58548;47.210;8.618;2023-10-09T13:09:59;94887.72;;;41.75;14.28
70902;BME280;58548;47.210;8.618;2023-10-09T13:12:35;94889.25;;;41.45;14.27
70902;BME280;58548;47.210;8.618;2023-10-09T13:15:08;94891.94;;;41.15;14.63
70902;BME280;58548;47.210;8.618;2023-10-09T13:17:38;94878.53;;;40.83;15.63
70902;BME280;58548;47.210;8.618;2023-10-09T13:20:09;94856.16;;;40.34;15.85
70902;BME280;58548;47.210;8.618;2023-10-09T13:22:39;94873.16;;;40.24;15.65
70902;BME280;58548;47.210;8.618;2023-10-09T13:25:09;94799.59;;;39.40;15.72
70902;BME280;58548;47.210;8.618;2023-10-09T13:27:46;94789.38;;;39.01;16.30
70902;BME280;58548;47.210;8.618;2023-10-09T13:30:22;94862.78;;;39.22;17.18
70902;BME280;58548;47.210;8.618;2023-10-09T13:32:49;94872.34;;;38.97;16.20
70902;BME280;58548;47.210;8.618;2023-10-09T13:35:19;94841.34;;;38.57;17.52
70902;BME280;58548;47.210;8.618;2023-10-09T13:37:50;94860.34;;;38.53;17.03
70902;BME280;58548;47.210;8.618;2023-10-09T13:40:22;94822.94;;;38.09;17.84
70902;BME280;58548;47.210;8.618;2023-10-09T13:42:57;94789.94;;;37.70;18.71
70902;BME280;58548;47.210;8.618;2023-10-09T13:45:27;94849.91;;;37.98;18.81
70902;BME280;58548;47.210;8.618;2023-10-09T13:47:56;94855.28;;;37.95;18.39
70902;BME280;58548;47.210;8.618;2023-10-09T13:50:28;94758.84;;;37.18;17.94
70902;BME280;58548;47.210;8.618;2023-10-09T13:52:59;94779.41;;;37.03;18.22
70902;BME280;58548;47.210;8.618;2023-10-09T13:55:25;94768.09;;;36.63;18.06
70902;BME280;58548;47.210;8.618;2023-10-09T13:57:58;94851.22;;;36.86;18.30
70902;BME280;58548;47.210;8.618;2023-10-09T14:00:26;94844.94;;;36.60;19.03